createdAt,value
2023-01-13T00:01:21.512Z,8.40
2023-01-13T00:03:49.601Z,8.40
2023-01-13T00:06:18.613Z,8.40
2023-01-13T00:08:50.261Z,8.40
2023-01-13T00:11:19.950Z,8.30
2023-01-13T00:13:47.738Z,8.30
2023-01-13T00:16:17.741Z,8.20
2023-01-13T00:18:46.017Z,8.20
2023-01-13T00:21:16.441Z,8.20
2023-01-13T00:23:44.657Z,8.10
2023-01-13T00:26:17.580Z,8.00
2023-01-13T00:28:45.389Z,7.80
2023-01-13T00:31:16.530Z,7.70
2023-01-13T00:33:48.584Z,7.70
2023-01-13T00:36:17.721Z,7.70
2023-01-13T00:38:45.825Z,7.60
2023-01-13T00:41:14.804Z,7.60
2023-01-13T00:43:43.096Z,7.70
2023-01-13T00:46:15.042Z,7.60
2023-01-13T00:48:43.204Z,7.60
2023-01-13T00:51:17.212Z,7.60
2023-01-13T00:53:47.382Z,7.60
2023-01-13T00:56:22.116Z,7.60
2023-01-13T00:58:59.261Z,7.70
2023-01-13T01:01:26.995Z,7.70
2023-01-13T01:03:55.057Z,7.80
2023-01-13T01:06:25.492Z,7.80
2023-01-13T01:08:54.673Z,7.80
2023-01-13T01:11:25.865Z,7.70
2023-01-13T01:13:58.031Z,7.70
2023-01-13T01:16:27.870Z,7.70
2023-01-13T01:18:56.066Z,7.70
2023-01-13T01:21:25.723Z,7.70
2023-01-13T01:23:53.401Z,7.70
2023-01-13T01:26:23.963Z,7.80
2023-01-13T01:28:52.659Z,7.70
2023-01-13T01:31:29.483Z,7.70
2023-01-13T01:33:57.438Z,7.70
2023-01-13T01:36:26.920Z,7.70
2023-01-13T01:38:58.082Z,7.80
2023-01-13T01:41:28.197Z,7.70
2023-01-13T01:44:16.618Z,7.70
2023-01-13T01:46:45.395Z,7.70
2023-01-13T01:49:18.628Z,7.70
2023-01-13T01:51:51.592Z,7.70
2023-01-13T01:54:25.991Z,7.70
2023-01-13T01:56:53.882Z,7.70
2023-01-13T01:59:23.814Z,7.70
2023-01-13T02:01:51.599Z,7.70
2023-01-13T02:04:24.280Z,7.70
2023-01-13T02:06:53.548Z,7.70
2023-01-13T02:09:21.441Z,7.60
2023-01-13T02:12:07.827Z,11.30
2023-01-13T02:14:38.952Z,7.60
2023-01-13T02:17:26.156Z,7.60
2023-01-13T02:20:05.983Z,7.50
2023-01-13T02:22:46.460Z,7.50
2023-01-13T02:25:14.094Z,7.50
2023-01-13T02:28:17.427Z,7.50
2023-01-13T02:31:08.351Z,7.40
2023-01-13T02:33:56.355Z,7.50
2023-01-13T02:36:35.090Z,7.40
2023-01-13T02:39:32.231Z,7.50
2023-01-13T02:43:51.414Z,7.50
2023-01-13T02:46:31.914Z,7.50
2023-01-13T02:49:06.254Z,7.50
2023-01-13T02:51:35.458Z,5.20
2023-01-13T02:54:21.989Z,7.50
2023-01-13T02:56:54.037Z,7.40
2023-01-13T02:59:26.283Z,7.50
2023-01-13T03:01:57.112Z,7.40
2023-01-13T03:04:43.832Z,7.50
2023-01-13T03:07:42.634Z,7.50
2023-01-13T03:10:28.668Z,7.50
2023-01-13T03:13:07.545Z,7.40
2023-01-13T03:16:02.250Z,7.50
2023-01-13T03:18:39.448Z,7.50
2023-01-13T03:21:16.081Z,7.50
2023-01-13T03:23:54.095Z,7.50
2023-01-13T03:26:43.374Z,7.50
2023-01-13T03:29:21.330Z,7.50
2023-01-13T03:32:09.316Z,7.40
2023-01-13T03:34:40.640Z,7.50
2023-01-13T03:37:09.242Z,7.40
2023-01-13T03:39:41.390Z,7.40
2023-01-13T03:42:14.236Z,7.30
2023-01-13T03:44:52.682Z,7.40
2023-01-13T03:47:53.140Z,7.40
2023-01-13T03:50:29.356Z,7.20
2023-01-13T03:53:09.324Z,7.00
2023-01-13T03:55:43.077Z,6.90
2023-01-13T03:58:26.089Z,6.80
2023-01-13T04:01:17.220Z,6.60
2023-01-13T04:04:00.386Z,6.60
2023-01-13T04:07:10.170Z,6.50
2023-01-13T04:09:50.479Z,6.50
2023-01-13T04:12:52.645Z,6.50
2023-01-13T04:15:24.146Z,6.60
2023-01-13T04:17:52.352Z,6.60
2023-01-13T04:20:20.297Z,6.60
2023-01-13T04:22:47.834Z,6.60
2023-01-13T04:25:15.660Z,6.70
2023-01-13T04:27:43.420Z,6.60
2023-01-13T04:30:11.570Z,6.60
2023-01-13T04:32:39.141Z,6.60
2023-01-13T04:37:37.396Z,6.60
2023-01-13T04:40:05.993Z,6.70
2023-01-13T04:42:33.808Z,6.60
2023-01-13T04:45:01.485Z,6.70
2023-01-13T04:47:29.413Z,6.70
2023-01-13T04:52:24.974Z,6.80
2023-01-13T04:54:52.543Z,6.80
2023-01-13T04:57:20.208Z,6.80
2023-01-13T04:59:47.995Z,6.80
2023-01-13T05:02:20.068Z,6.80
2023-01-13T05:04:48.745Z,6.80
2023-01-13T05:07:16.901Z,6.90
2023-01-13T05:09:44.685Z,6.90
2023-01-13T05:12:31.106Z,7.00
2023-01-13T05:15:17.739Z,7.10
2023-01-13T05:17:45.668Z,7.10
2023-01-13T05:20:13.450Z,7.10
2023-01-13T05:22:59.727Z,7.20
2023-01-13T05:25:28.291Z,7.20
2023-01-13T05:27:58.241Z,7.30
2023-01-13T05:30:32.686Z,7.40
2023-01-13T05:33:00.303Z,7.40
2023-01-13T05:35:29.391Z,7.50
2023-01-13T05:37:57.052Z,7.60
2023-01-13T05:40:43.353Z,7.60
2023-01-13T05:43:22.182Z,7.60
2023-01-13T05:46:01.667Z,7.60
2023-01-13T05:48:34.706Z,7.70
2023-01-13T05:51:04.378Z,7.70
2023-01-13T05:53:32.576Z,7.70
2023-01-13T05:58:28.504Z,7.70
2023-01-13T06:01:00.532Z,7.80
2023-01-13T06:03:28.335Z,7.70
2023-01-13T06:05:59.295Z,7.70
2023-01-13T06:08:27.053Z,7.80
2023-01-13T06:10:54.843Z,7.80
2023-01-13T06:13:23.028Z,7.80
2023-01-13T06:15:50.817Z,7.70
2023-01-13T06:18:18.796Z,7.80
2023-01-13T06:20:47.276Z,7.80
2023-01-13T06:23:14.784Z,7.80
2023-01-13T06:26:13.158Z,7.80
2023-01-13T06:28:40.893Z,7.80
2023-01-13T06:31:10.412Z,7.80
2023-01-13T06:33:45.000Z,7.80
2023-01-13T06:36:19.236Z,7.80
2023-01-13T06:38:50.744Z,7.90
2023-01-13T06:41:40.119Z,7.90
2023-01-13T06:44:07.932Z,7.80
2023-01-13T06:46:35.930Z,7.80
2023-01-13T06:49:03.560Z,7.90
2023-01-13T06:53:59.351Z,7.90
2023-01-13T06:56:27.055Z,8.00
2023-01-13T06:58:54.786Z,8.00
2023-01-13T07:01:22.884Z,8.00
2023-01-13T07:08:47.042Z,8.00
2023-01-13T07:14:03.779Z,8.00
2023-01-13T07:16:31.483Z,8.00
2023-01-13T07:18:59.211Z,7.90
2023-01-13T07:21:26.898Z,8.00
2023-01-13T07:23:54.505Z,8.00
2023-01-13T07:26:22.154Z,7.90
2023-01-13T07:28:49.758Z,8.00
2023-01-13T07:31:21.400Z,8.00
2023-01-13T07:33:50.249Z,8.00
2023-01-13T07:36:18.183Z,8.00
2023-01-13T07:38:45.920Z,8.00
2023-01-13T07:41:33.568Z,8.00
2023-01-13T07:44:04.969Z,8.10
2023-01-13T07:46:33.698Z,8.10
2023-01-13T07:49:01.319Z,8.10
2023-01-13T07:51:28.894Z,8.10
2023-01-13T07:53:56.478Z,8.00
2023-01-13T07:56:24.292Z,7.90
2023-01-13T07:58:53.028Z,7.90
2023-01-13T08:01:21.077Z,7.80
2023-01-13T08:03:48.967Z,7.80
2023-01-13T08:06:16.906Z,7.80
2023-01-13T08:08:44.575Z,7.70
2023-01-13T08:11:12.487Z,7.70
2023-01-13T08:13:40.040Z,7.70
2023-01-13T08:16:10.697Z,7.70
2023-01-13T08:18:38.798Z,7.70
2023-01-13T08:21:12.993Z,7.70
2023-01-13T08:23:41.989Z,7.80
2023-01-13T08:26:15.209Z,7.80
2023-01-13T08:28:43.229Z,7.80
2023-01-13T08:31:14.074Z,7.80
2023-01-13T08:33:41.889Z,7.80
2023-01-13T08:36:12.606Z,7.80
2023-01-13T08:38:42.556Z,7.80
2023-01-13T08:41:12.163Z,7.80
2023-01-13T08:43:40.152Z,7.90
2023-01-13T08:46:07.830Z,7.90
2023-01-13T08:48:35.649Z,7.90
2023-01-13T08:51:09.146Z,7.90
2023-01-13T08:53:36.919Z,8.00
2023-01-13T08:56:11.903Z,8.00
2023-01-13T08:58:41.053Z,8.00
2023-01-13T09:01:10.170Z,8.10
2023-01-13T09:03:39.126Z,8.00
2023-01-13T09:06:06.888Z,8.00
2023-01-13T09:08:34.561Z,8.00
2023-01-13T09:13:50.572Z,8.00
2023-01-13T09:16:18.371Z,7.90
2023-01-13T09:18:46.142Z,7.90
2023-01-13T09:21:14.238Z,8.00
2023-01-13T09:23:41.712Z,7.90
2023-01-13T09:26:10.219Z,8.00
2023-01-13T09:28:38.160Z,8.00
2023-01-13T09:31:06.753Z,8.10
2023-01-13T09:36:21.542Z,8.20
2023-01-13T09:38:52.585Z,8.20
2023-01-13T09:41:41.158Z,8.20
2023-01-13T09:44:32.990Z,8.20
2023-01-13T09:47:04.720Z,8.20
2023-01-13T09:49:39.598Z,8.20
2023-01-13T09:52:16.007Z,8.10
2023-01-13T09:54:54.976Z,8.10
2023-01-13T09:57:22.888Z,8.00
2023-01-13T10:02:40.362Z,8.00
2023-01-13T10:05:19.971Z,8.10
2023-01-13T10:07:52.858Z,8.10
2023-01-13T10:10:49.127Z,8.20
2023-01-13T10:13:25.337Z,8.40
2023-01-13T10:16:16.564Z,8.50
2023-01-13T10:19:10.029Z,8.50
2023-01-13T10:22:13.130Z,8.60
2023-01-13T10:25:07.295Z,8.70
2023-01-13T10:27:38.575Z,8.70
2023-01-13T10:30:18.776Z,8.70
2023-01-13T10:32:54.907Z,8.80
2023-01-13T10:35:52.297Z,8.90
2023-01-13T10:38:25.238Z,8.80
2023-01-13T10:40:59.313Z,9.00
2023-01-13T10:43:28.752Z,9.00
2023-01-13T10:46:00.003Z,9.00
2023-01-13T10:48:41.638Z,9.00
2023-01-13T10:51:20.994Z,9.00
2023-01-13T10:54:14.193Z,8.90
2023-01-13T10:56:44.887Z,8.90
2023-01-13T10:59:23.018Z,9.00
2023-01-13T11:02:24.821Z,9.00
2023-01-13T11:04:53.877Z,9.00
2023-01-13T11:07:54.705Z,9.10
2023-01-13T11:10:31.431Z,9.20
2023-01-13T11:13:30.410Z,9.20
2023-01-13T11:16:14.348Z,9.20
2023-01-13T11:19:12.030Z,9.20
2023-01-13T11:22:05.731Z,9.10
2023-01-13T11:24:40.291Z,9.00
2023-01-13T11:27:27.959Z,9.10
2023-01-13T11:30:30.936Z,9.10
2023-01-13T11:33:10.964Z,9.20
2023-01-13T11:35:43.945Z,9.30
2023-01-13T11:38:43.376Z,9.30
2023-01-13T11:41:32.883Z,9.30
2023-01-13T11:44:39.155Z,9.40
2023-01-13T11:47:12.051Z,9.50
2023-01-13T11:52:21.969Z,9.40
2023-01-13T11:55:01.884Z,9.40
2023-01-13T11:57:44.588Z,9.50
2023-01-13T12:00:30.501Z,9.60
2023-01-13T12:03:17.367Z,9.60
2023-01-13T12:05:52.447Z,9.40
2023-01-13T12:08:34.723Z,9.40
2023-01-13T12:11:16.175Z,9.30
2023-01-13T12:14:31.673Z,9.40
2023-01-13T12:17:01.816Z,9.40
2023-01-13T12:19:32.479Z,9.40
2023-01-13T12:22:16.531Z,9.30
2023-01-13T12:24:56.688Z,9.30
2023-01-13T12:28:01.057Z,9.30
2023-01-13T12:30:37.292Z,9.40
2023-01-13T12:33:33.710Z,9.50
2023-01-13T12:36:49.651Z,9.40
2023-01-13T12:39:43.784Z,9.40
2023-01-13T12:42:48.404Z,9.40
2023-01-13T12:45:22.451Z,9.30
2023-01-13T12:50:27.334Z,9.40
2023-01-13T12:53:28.982Z,9.50
2023-01-13T12:56:25.589Z,9.50
2023-01-13T12:59:31.986Z,9.50
2023-01-13T13:02:27.677Z,9.60
2023-01-13T13:04:58.672Z,9.60
2023-01-13T13:07:47.457Z,9.60
2023-01-13T13:10:27.980Z,9.70
2023-01-13T13:13:18.042Z,9.80
2023-01-13T13:15:51.184Z,9.80
2023-01-13T13:18:21.590Z,9.80
2023-01-13T13:20:54.289Z,9.80
2023-01-13T13:23:44.554Z,9.70
2023-01-13T13:26:31.794Z,9.60
2023-01-13T13:29:21.077Z,9.60
2023-01-13T13:32:15.946Z,9.50
2023-01-13T13:35:12.610Z,9.50
2023-01-13T13:38:04.848Z,9.50
2023-01-13T13:40:59.416Z,9.40
2023-01-13T13:43:46.952Z,9.50
2023-01-13T13:46:44.419Z,9.60
2023-01-13T13:49:22.075Z,9.80
2023-01-13T13:52:07.257Z,9.80
2023-01-13T13:54:36.812Z,9.80
2023-01-13T13:57:05.198Z,9.80
2023-01-13T13:59:34.706Z,9.80
2023-01-13T14:02:04.227Z,9.80
2023-01-13T14:04:35.541Z,9.70
2023-01-13T14:07:24.710Z,9.70
2023-01-13T14:09:54.635Z,9.60
2023-01-13T14:12:27.672Z,9.60
2023-01-13T14:14:57.592Z,9.60
2023-01-13T14:17:30.136Z,9.60
2023-01-13T14:20:05.246Z,9.70
2023-01-13T14:22:33.473Z,9.70
2023-01-13T14:25:02.114Z,9.70
2023-01-13T14:27:31.002Z,9.70
2023-01-13T14:30:00.760Z,9.70
2023-01-13T14:32:35.298Z,9.70
2023-01-13T14:35:07.598Z,9.60
2023-01-13T14:37:42.112Z,9.60
2023-01-13T14:40:39.686Z,9.60
2023-01-13T14:43:16.899Z,9.70
2023-01-13T14:45:57.460Z,9.70
2023-01-13T14:48:36.022Z,9.70
2023-01-13T14:51:11.155Z,9.80
2023-01-13T14:53:46.810Z,9.80
2023-01-13T14:56:40.247Z,9.80
2023-01-13T14:59:35.968Z,9.80
2023-01-13T15:02:29.526Z,9.70
2023-01-13T15:05:18.984Z,9.50
2023-01-13T15:08:01.404Z,9.40
2023-01-13T15:10:45.678Z,9.40
2023-01-13T15:13:35.932Z,9.20
2023-01-13T15:16:25.591Z,9.20
2023-01-13T15:18:55.057Z,9.10
2023-01-13T15:21:23.530Z,9.10
2023-01-13T15:23:51.253Z,9.00
2023-01-13T15:26:23.301Z,9.00
2023-01-13T15:28:52.393Z,9.00
2023-01-13T15:31:20.885Z,9.10
2023-01-13T15:33:49.411Z,9.10
2023-01-13T15:36:27.107Z,9.10
2023-01-13T15:38:55.841Z,9.20
2023-01-13T15:41:42.659Z,9.10
2023-01-13T15:44:33.534Z,9.00
2023-01-13T15:47:07.475Z,9.00
2023-01-13T15:49:41.178Z,8.90
2023-01-13T15:52:26.525Z,8.80
2023-01-13T15:54:54.772Z,8.70
2023-01-13T15:57:23.782Z,8.70
2023-01-13T15:59:53.191Z,8.50
2023-01-13T16:02:22.613Z,8.40
2023-01-13T16:04:53.796Z,8.30
2023-01-13T16:07:23.890Z,8.20
2023-01-13T16:12:20.668Z,8.10
2023-01-13T16:14:48.314Z,8.00
2023-01-13T16:17:22.417Z,7.90
2023-01-13T16:19:50.818Z,7.90
2023-01-13T16:22:18.784Z,7.80
2023-01-13T16:24:46.750Z,7.80
2023-01-13T16:27:22.219Z,7.70
2023-01-13T16:29:51.183Z,7.60
2023-01-13T16:32:20.952Z,7.50
2023-01-13T16:34:49.226Z,7.50
2023-01-13T16:37:24.535Z,7.50
2023-01-13T16:39:53.857Z,7.30
2023-01-13T16:44:50.805Z,7.20
2023-01-13T16:49:46.985Z,7.10
2023-01-13T16:52:14.616Z,7.00
2023-01-13T16:54:42.416Z,6.90
2023-01-13T16:57:13.416Z,6.80
2023-01-13T17:02:15.568Z,6.80
2023-01-13T17:04:43.702Z,6.80
2023-01-13T17:07:16.699Z,6.80
2023-01-13T17:12:12.527Z,6.90
2023-01-13T17:17:23.181Z,6.80
2023-01-13T17:19:52.150Z,6.90
2023-01-13T17:22:21.436Z,6.90
2023-01-13T17:27:18.860Z,6.80
2023-01-13T17:29:46.950Z,6.80
2023-01-13T17:32:19.742Z,6.80
2023-01-13T17:34:47.839Z,6.70
2023-01-13T17:37:18.009Z,6.70
2023-01-13T17:39:46.845Z,6.70
2023-01-13T17:42:17.840Z,6.70
2023-01-13T17:44:47.003Z,6.70
2023-01-13T17:47:40.609Z,6.70
2023-01-13T17:50:09.145Z,6.70
2023-01-13T17:52:36.922Z,6.70
2023-01-13T17:55:04.977Z,6.70
2023-01-13T17:57:32.684Z,6.70
2023-01-13T18:00:00.166Z,6.60
2023-01-13T18:02:30.326Z,6.60
2023-01-13T18:04:58.285Z,6.60
2023-01-13T18:07:26.061Z,6.50
2023-01-13T18:09:53.673Z,6.50
2023-01-13T18:12:21.268Z,6.40
2023-01-13T18:17:17.389Z,6.30
2023-01-13T18:20:03.556Z,6.30
2023-01-13T18:22:49.634Z,6.30
2023-01-13T18:28:04.898Z,6.20
2023-01-13T18:30:32.770Z,4.10
2023-01-13T18:33:00.668Z,6.20
2023-01-13T18:35:29.719Z,6.20
2023-01-13T18:37:57.407Z,6.20
2023-01-13T18:40:26.037Z,6.20
2023-01-13T18:45:29.545Z,6.10
2023-01-13T18:48:00.308Z,6.00
2023-01-13T18:50:29.260Z,6.00
2023-01-13T18:52:57.319Z,5.90
2023-01-13T18:55:25.490Z,5.90
2023-01-13T18:57:54.643Z,5.80
2023-01-13T19:00:23.815Z,5.80
2023-01-13T19:05:35.257Z,5.70
2023-01-13T19:08:03.789Z,5.70
2023-01-13T19:10:32.798Z,5.80
2023-01-13T19:13:03.093Z,5.80
2023-01-13T19:15:32.314Z,5.80
2023-01-13T19:18:00.275Z,5.80
2023-01-13T19:22:56.708Z,5.80
2023-01-13T19:27:52.556Z,5.90
2023-01-13T19:32:49.414Z,6.00
2023-01-13T19:35:18.167Z,6.10
2023-01-13T19:40:16.878Z,6.20
2023-01-13T19:43:03.062Z,6.30
2023-01-13T19:45:33.940Z,6.30
2023-01-13T19:50:30.218Z,6.40
2023-01-13T19:55:28.563Z,6.50
2023-01-13T20:00:24.688Z,6.50
2023-01-13T20:05:26.049Z,6.50
2023-01-13T20:07:54.513Z,6.60
2023-01-13T20:10:24.739Z,6.60
2023-01-13T20:12:52.657Z,6.60
2023-01-13T20:15:20.566Z,6.60
2023-01-13T20:17:48.513Z,6.60
2023-01-13T20:20:19.713Z,6.60
2023-01-13T20:22:49.566Z,6.60
2023-01-13T20:27:48.093Z,6.60
2023-01-13T20:30:17.465Z,6.60
2023-01-13T20:32:45.924Z,6.70
2023-01-13T20:35:13.898Z,6.70
2023-01-13T20:37:42.837Z,6.70
2023-01-13T20:40:19.806Z,6.70
2023-01-13T20:42:47.589Z,6.80
2023-01-13T20:45:18.147Z,6.80
2023-01-13T20:47:46.087Z,6.80
2023-01-13T20:50:15.978Z,6.80
2023-01-13T20:52:47.219Z,6.70
2023-01-13T20:55:15.946Z,6.70
2023-01-13T20:57:44.113Z,6.60
2023-01-13T21:00:16.175Z,6.50
2023-01-13T21:02:44.986Z,6.60
2023-01-13T21:05:15.705Z,6.40
2023-01-13T21:07:43.474Z,6.30
2023-01-13T21:10:11.966Z,6.30
2023-01-13T21:15:27.789Z,6.30
2023-01-13T21:18:14.133Z,6.30
2023-01-13T21:23:10.939Z,6.10
2023-01-13T21:25:40.232Z,6.10
2023-01-13T21:28:11.447Z,6.10
2023-01-13T21:30:40.257Z,6.10
2023-01-13T21:35:40.178Z,6.00
2023-01-13T21:38:09.395Z,6.00
2023-01-13T21:40:37.243Z,6.00
2023-01-13T21:43:23.320Z,6.00
2023-01-13T21:46:09.293Z,6.00
2023-01-13T21:48:37.009Z,6.00
2023-01-13T21:51:05.032Z,6.00
2023-01-13T21:53:32.719Z,6.00
2023-01-13T21:56:00.266Z,6.00
2023-01-13T21:58:28.276Z,6.10
2023-01-13T22:00:56.093Z,6.10
2023-01-13T22:03:24.103Z,6.20
2023-01-13T22:05:55.975Z,6.20
2023-01-13T22:10:58.131Z,6.30
2023-01-13T22:13:47.525Z,6.40
2023-01-13T22:16:16.080Z,6.40
2023-01-13T22:18:43.804Z,6.40
2023-01-13T22:21:11.631Z,6.40
2023-01-13T22:23:39.722Z,6.50
2023-01-13T22:26:08.703Z,6.50
2023-01-13T22:28:43.708Z,6.50
2023-01-13T22:31:13.736Z,6.50
2023-01-13T22:33:42.413Z,6.50
2023-01-13T22:36:10.837Z,6.50
2023-01-13T22:38:38.820Z,6.60
2023-01-13T22:41:09.018Z,6.60
2023-01-13T22:43:40.123Z,6.60
2023-01-13T22:46:12.466Z,6.60
2023-01-13T22:48:41.437Z,6.70
2023-01-13T22:51:14.404Z,6.70
2023-01-13T22:53:43.030Z,6.70
2023-01-13T22:56:22.545Z,6.60
2023-01-13T22:59:00.383Z,6.70
2023-01-13T23:01:31.637Z,6.60
2023-01-13T23:04:01.322Z,6.70
2023-01-13T23:06:33.559Z,6.70
2023-01-13T23:09:02.751Z,6.80
2023-01-13T23:11:30.854Z,6.80
2023-01-13T23:14:01.835Z,6.70
2023-01-13T23:16:34.564Z,6.80
2023-01-13T23:19:02.532Z,6.80
2023-01-13T23:21:32.226Z,6.80
2023-01-13T23:24:00.606Z,6.80
2023-01-13T23:26:29.119Z,6.80
2023-01-13T23:29:01.554Z,6.80
2023-01-13T23:31:29.844Z,6.80
2023-01-13T23:33:57.474Z,6.80
2023-01-13T23:36:26.907Z,6.80
2023-01-13T23:41:24.543Z,6.80
2023-01-13T23:43:57.834Z,6.80
2023-01-13T23:46:26.797Z,6.80
2023-01-13T23:48:56.023Z,6.70
2023-01-13T23:51:26.206Z,6.80
2023-01-13T23:53:54.536Z,6.70
2023-01-13T23:56:28.125Z,6.70
2023-01-13T23:58:56.257Z,3.90
